createdAt,value
2019-06-07T00:02:05.952Z,13.30
2019-06-07T00:04:36.924Z,13.40
2019-06-07T00:07:09.018Z,13.30
2019-06-07T00:09:40.552Z,13.50
2019-06-07T00:12:14.066Z,13.70
2019-06-07T00:14:44.190Z,13.60
2019-06-07T00:17:17.182Z,13.60
2019-06-07T00:19:48.931Z,13.70
2019-06-07T00:22:32.247Z,13.50
2019-06-07T00:24:52.720Z,13.60
2019-06-07T00:27:23.960Z,13.50
2019-06-07T00:29:54.903Z,13.40
2019-06-07T00:32:25.874Z,13.40
2019-06-07T00:34:56.743Z,13.40
2019-06-07T00:37:27.718Z,13.50
2019-06-07T00:40:13.958Z,13.50
2019-06-07T00:42:31.316Z,13.30
2019-06-07T00:45:02.288Z,13.20
2019-06-07T00:47:33.263Z,13.30
2019-06-07T00:50:05.229Z,13.20
2019-06-07T00:53:13.890Z,13.10
2019-06-07T00:55:09.669Z,12.90
2019-06-07T00:57:42.145Z,12.70
2019-06-07T01:00:14.968Z,12.70
2019-06-07T01:02:48.473Z,12.50
2019-06-07T01:05:28.138Z,12.40
2019-06-07T01:07:53.317Z,12.20
2019-06-07T01:10:51.751Z,12.10
2019-06-07T01:12:57.047Z,12.00
2019-06-07T01:15:29.363Z,11.90
2019-06-07T01:18:33.852Z,11.80
2019-06-07T01:20:33.143Z,11.70
2019-06-07T01:23:04.090Z,11.50
2019-06-07T01:25:35.071Z,11.60
2019-06-07T01:28:06.020Z,11.50
2019-06-07T01:30:36.998Z,11.30
2019-06-07T01:33:07.948Z,11.30
2019-06-07T01:35:38.961Z,11.20
2019-06-07T01:38:09.909Z,11.30
2019-06-07T01:40:40.829Z,11.20
2019-06-07T01:43:12.850Z,11.10
2019-06-07T01:45:43.838Z,11.00
2019-06-07T01:48:17.671Z,11.00
2019-06-07T01:50:47.464Z,11.00
2019-06-07T01:53:21.904Z,10.90
2019-06-07T01:55:51.089Z,10.80
2019-06-07T01:58:24.778Z,10.70
2019-06-07T02:00:55.116Z,10.70
2019-06-07T02:03:29.691Z,10.70
2019-06-07T02:05:58.748Z,10.60
2019-06-07T02:08:34.383Z,10.50
2019-06-07T02:11:02.372Z,10.50
2019-06-07T02:13:33.349Z,10.50
2019-06-07T02:16:04.313Z,10.50
2019-06-07T02:18:35.317Z,10.50
2019-06-07T02:21:07.341Z,10.40
2019-06-07T02:23:38.254Z,10.40
2019-06-07T02:26:10.730Z,10.40
2019-06-07T02:28:45.448Z,10.40
2019-06-07T02:31:14.338Z,10.40
2019-06-07T02:33:45.292Z,10.40
2019-06-07T02:36:16.349Z,10.30
2019-06-07T02:38:47.306Z,10.20
2019-06-07T02:41:18.352Z,10.20
2019-06-07T02:43:49.227Z,10.20
2019-06-07T02:46:34.308Z,10.10
2019-06-07T02:48:56.961Z,10.00
2019-06-07T02:51:33.555Z,10.10
2019-06-07T02:54:00.651Z,10.20
2019-06-07T02:56:48.613Z,10.10
2019-06-07T02:59:05.166Z,10.20
2019-06-07T03:01:41.839Z,10.20
2019-06-07T03:04:09.761Z,10.30
2019-06-07T03:06:44.027Z,10.30
2019-06-07T03:09:15.364Z,10.20
2019-06-07T03:11:49.039Z,10.10
2019-06-07T03:14:21.652Z,10.10
2019-06-07T03:16:56.110Z,10.00
2019-06-07T03:19:31.370Z,10.00
2019-06-07T03:22:05.202Z,9.90
2019-06-07T03:24:41.286Z,9.90
2019-06-07T03:27:34.305Z,10.00
2019-06-07T03:29:44.024Z,10.00
2019-06-07T03:32:15.014Z,9.90
2019-06-07T03:34:45.962Z,10.00
2019-06-07T03:37:16.935Z,10.00
2019-06-07T03:39:47.963Z,10.10
2019-06-07T03:42:18.939Z,10.20
2019-06-07T03:44:49.886Z,10.40
2019-06-07T03:47:20.873Z,10.50
2019-06-07T03:49:51.849Z,10.60
2019-06-07T03:52:22.831Z,10.60
2019-06-07T03:54:53.804Z,10.60
2019-06-07T03:57:28.631Z,10.60
2019-06-07T03:59:59.148Z,10.70
2019-06-07T04:02:30.512Z,10.70
2019-06-07T04:05:02.787Z,10.70
2019-06-07T04:07:36.920Z,10.80
2019-06-07T04:10:08.139Z,10.90
2019-06-07T04:12:43.487Z,11.00
2019-06-07T04:15:11.952Z,11.00
2019-06-07T04:18:00.719Z,11.00
2019-06-07T04:20:15.576Z,11.00
2019-06-07T04:22:46.525Z,11.00
2019-06-07T04:25:17.442Z,11.00
2019-06-07T04:27:48.401Z,11.10
2019-06-07T04:30:26.318Z,11.20
2019-06-07T04:32:57.270Z,11.20
2019-06-07T04:35:31.462Z,11.30
2019-06-07T04:38:00.968Z,11.30
2019-06-07T04:40:33.815Z,11.30
2019-06-07T04:43:05.980Z,11.40
2019-06-07T04:45:46.228Z,11.50
2019-06-07T04:48:10.921Z,11.50
2019-06-07T04:50:43.961Z,11.60
2019-06-07T04:53:14.542Z,11.70
2019-06-07T04:55:45.518Z,11.70
2019-06-07T04:58:16.467Z,11.80
2019-06-07T05:00:53.985Z,11.90
2019-06-07T05:03:20.495Z,12.00
2019-06-07T05:05:51.475Z,12.10
2019-06-07T05:08:28.170Z,12.10
2019-06-07T05:10:55.150Z,12.20
2019-06-07T05:13:26.108Z,12.30
2019-06-07T05:15:57.095Z,12.40
2019-06-07T05:18:29.669Z,12.50
2019-06-07T05:21:00.732Z,12.60
2019-06-07T05:26:05.757Z,12.80
2019-06-07T05:28:40.909Z,12.90
2019-06-07T05:31:10.460Z,13.10
2019-06-07T05:33:43.591Z,13.30
2019-06-07T05:36:14.109Z,13.40
2019-06-07T05:38:45.294Z,13.40
2019-06-07T05:41:16.407Z,13.60
2019-06-07T05:44:00.210Z,13.60
2019-06-07T05:46:19.956Z,13.70
2019-06-07T05:48:50.909Z,13.80
2019-06-07T05:51:21.899Z,13.80
2019-06-07T05:53:52.846Z,13.80
2019-06-07T05:56:25.039Z,13.90
2019-06-07T05:58:56.089Z,14.00
2019-06-07T06:01:42.703Z,14.10
2019-06-07T06:03:59.716Z,14.20
2019-06-07T06:06:30.720Z,14.30
2019-06-07T06:09:13.535Z,14.40
2019-06-07T06:11:48.132Z,14.60
2019-06-07T06:14:08.487Z,14.70
2019-06-07T06:16:44.463Z,14.80
2019-06-07T06:19:13.336Z,14.90
2019-06-07T06:21:46.285Z,15.00
2019-06-07T06:24:16.964Z,15.20
2019-06-07T06:26:54.111Z,15.30
2019-06-07T06:29:22.035Z,15.30
2019-06-07T06:32:40.055Z,15.20
2019-06-07T06:34:25.652Z,15.20
2019-06-07T06:36:56.605Z,15.30
2019-06-07T06:39:27.589Z,15.50
2019-06-07T06:42:03.680Z,15.60
2019-06-07T06:44:31.278Z,15.70
2019-06-07T06:47:02.234Z,15.80
2019-06-07T06:49:33.221Z,15.90
2019-06-07T06:52:04.212Z,16.00
2019-06-07T06:54:40.852Z,16.20
2019-06-07T06:57:19.718Z,16.30
2019-06-07T06:59:45.090Z,16.40
2019-06-07T07:02:15.793Z,16.60
2019-06-07T07:04:48.750Z,16.80
2019-06-07T07:07:20.063Z,16.90
2019-06-07T07:09:55.308Z,16.90
2019-06-07T07:12:23.715Z,17.00
2019-06-07T07:14:56.038Z,17.00
2019-06-07T07:17:47.638Z,17.10
2019-06-07T07:19:59.981Z,17.10
2019-06-07T07:22:31.040Z,17.10
2019-06-07T07:25:02.989Z,17.10
2019-06-07T07:27:33.900Z,17.30
2019-06-07T07:30:35.263Z,17.50
2019-06-07T07:32:40.683Z,17.60
2019-06-07T07:35:11.685Z,17.70
2019-06-07T07:37:45.408Z,17.80
2019-06-07T07:40:56.437Z,17.90
2019-06-07T07:42:50.508Z,18.00
2019-06-07T07:45:20.713Z,18.00
2019-06-07T07:48:08.654Z,18.10
2019-06-07T07:50:24.319Z,18.10
2019-06-07T07:53:00.306Z,18.30
2019-06-07T07:55:27.964Z,18.60
2019-06-07T07:58:01.633Z,18.60
2019-06-07T08:03:04.976Z,18.80
2019-06-07T08:05:42.816Z,18.80
2019-06-07T08:08:08.604Z,18.90
2019-06-07T08:10:39.598Z,19.00
2019-06-07T08:13:27.570Z,19.10
2019-06-07T08:15:43.228Z,19.20
2019-06-07T08:18:14.186Z,19.30
2019-06-07T08:21:04.970Z,19.40
2019-06-07T08:23:17.879Z,19.30
2019-06-07T08:25:49.186Z,19.40
2019-06-07T08:28:20.294Z,19.40
2019-06-07T08:30:58.390Z,19.40
2019-06-07T08:33:26.448Z,19.40
2019-06-07T08:36:10.377Z,19.50
2019-06-07T08:38:44.991Z,19.50
2019-06-07T08:41:10.929Z,19.70
2019-06-07T08:43:34.549Z,20.00
2019-06-07T08:46:07.692Z,20.10
2019-06-07T08:48:38.264Z,20.30
2019-06-07T08:51:09.252Z,20.30
2019-06-07T08:53:40.282Z,20.40
2019-06-07T08:56:12.793Z,20.60
2019-06-07T08:58:43.794Z,20.60
2019-06-07T09:01:14.908Z,20.70
2019-06-07T09:03:45.859Z,21.00
2019-06-07T09:07:01.192Z,21.00
2019-06-07T09:08:49.535Z,21.00
2019-06-07T09:11:20.576Z,20.90
2019-06-07T09:13:54.531Z,20.80
2019-06-07T09:16:24.252Z,20.70
2019-06-07T09:18:58.996Z,20.80
2019-06-07T09:21:28.885Z,20.90
2019-06-07T09:24:06.176Z,21.00
2019-06-07T09:26:33.212Z,21.10
2019-06-07T09:29:08.704Z,21.00
2019-06-07T09:31:51.974Z,21.30
2019-06-07T09:34:13.954Z,21.50
2019-06-07T09:36:42.491Z,21.70
2019-06-07T09:39:13.442Z,21.90
2019-06-07T09:41:49.592Z,22.10
2019-06-07T09:44:25.028Z,22.20
2019-06-07T09:47:07.926Z,22.70
2019-06-07T09:49:32.252Z,23.60
2019-06-07T09:51:57.946Z,26.20
2019-06-07T09:55:03.939Z,28.50
2019-06-07T09:57:07.054Z,29.80
2019-06-07T09:59:35.277Z,30.60
2019-06-07T10:02:09.577Z,32.00
2019-06-07T10:04:39.002Z,33.20
2019-06-07T10:07:28.853Z,33.50
2019-06-07T10:10:09.834Z,33.70
2019-06-07T10:12:15.293Z,32.70
2019-06-07T10:14:46.233Z,33.60
2019-06-07T10:17:17.204Z,33.20
2019-06-07T10:19:48.143Z,33.20
2019-06-07T10:22:19.113Z,33.80
2019-06-07T10:24:50.089Z,34.30
2019-06-07T10:27:21.139Z,33.00
2019-06-07T10:29:52.105Z,33.00
2019-06-07T10:32:23.072Z,32.60
2019-06-07T10:34:54.025Z,32.10
2019-06-07T10:37:25.024Z,33.50
2019-06-07T10:39:55.960Z,34.70
2019-06-07T10:42:26.921Z,34.50
2019-06-07T10:44:57.942Z,35.00
2019-06-07T10:47:28.912Z,34.40
2019-06-07T10:49:59.889Z,35.50
2019-06-07T10:52:30.862Z,35.10
2019-06-07T10:55:02.515Z,35.00
2019-06-07T10:57:33.581Z,36.40
2019-06-07T11:00:07.584Z,36.80
2019-06-07T11:02:38.751Z,36.10
2019-06-07T11:05:10.263Z,36.00
2019-06-07T11:07:41.311Z,36.50
2019-06-07T11:10:17.800Z,37.50
2019-06-07T11:12:45.250Z,37.80
2019-06-07T11:15:16.321Z,37.70
2019-06-07T11:17:47.271Z,38.20
2019-06-07T11:20:18.858Z,37.20
2019-06-07T11:22:49.787Z,36.60
2019-06-07T11:25:21.867Z,36.10
2019-06-07T11:27:52.807Z,36.00
2019-06-07T11:30:23.824Z,35.80
2019-06-07T11:32:54.794Z,36.70
2019-06-07T11:35:25.768Z,37.60
2019-06-07T11:37:56.760Z,38.10
2019-06-07T11:40:34.959Z,38.20
2019-06-07T11:43:00.386Z,37.90
2019-06-07T11:45:31.386Z,37.90
2019-06-07T11:48:02.311Z,37.90
2019-06-07T11:50:33.279Z,38.40
2019-06-07T11:53:04.225Z,38.30
2019-06-07T11:55:35.158Z,38.10
2019-06-07T11:58:09.067Z,38.60
2019-06-07T12:00:38.755Z,38.20
2019-06-07T12:03:09.697Z,39.30
2019-06-07T12:05:40.663Z,40.20
2019-06-07T12:08:11.935Z,40.00
2019-06-07T12:10:42.971Z,40.00
2019-06-07T12:13:15.338Z,40.10
2019-06-07T12:15:49.106Z,38.80
2019-06-07T12:18:19.795Z,38.30
2019-06-07T12:20:51.847Z,38.60
2019-06-07T12:23:22.787Z,38.60
2019-06-07T12:25:53.760Z,38.00
2019-06-07T12:28:24.700Z,37.30
2019-06-07T12:30:55.669Z,37.40
2019-06-07T12:33:26.687Z,37.40
2019-06-07T12:35:57.654Z,37.90
2019-06-07T12:38:28.594Z,38.70
2019-06-07T12:40:59.671Z,37.90
2019-06-07T12:43:30.623Z,37.70
2019-06-07T12:46:01.596Z,37.80
2019-06-07T12:48:32.544Z,37.90
2019-06-07T12:51:03.517Z,38.00
2019-06-07T12:53:34.456Z,38.70
2019-06-07T12:56:06.509Z,38.90
2019-06-07T12:58:39.525Z,38.80
2019-06-07T13:01:10.152Z,38.10
2019-06-07T13:03:42.176Z,38.10
2019-06-07T13:06:13.224Z,38.60
2019-06-07T13:08:44.164Z,37.90
2019-06-07T13:11:21.681Z,38.20
2019-06-07T13:13:47.784Z,39.40
2019-06-07T13:16:19.908Z,38.80
2019-06-07T13:18:51.024Z,39.10
2019-06-07T13:21:22.330Z,39.40
2019-06-07T13:23:53.437Z,39.30
2019-06-07T13:26:25.082Z,38.10
2019-06-07T13:28:57.028Z,37.20
2019-06-07T13:31:27.967Z,37.40
2019-06-07T13:33:58.945Z,37.70
2019-06-07T13:36:29.883Z,38.20
2019-06-07T13:39:00.853Z,38.30
2019-06-07T13:41:42.399Z,38.40
2019-06-07T13:44:06.258Z,38.10
2019-06-07T13:46:37.493Z,39.00
2019-06-07T13:49:08.465Z,39.40
2019-06-07T13:51:40.404Z,39.90
2019-06-07T13:54:11.383Z,40.30
2019-06-07T13:57:00.750Z,40.00
2019-06-07T13:59:15.107Z,40.10
2019-06-07T14:01:46.044Z,40.50
2019-06-07T14:04:17.016Z,40.90
2019-06-07T14:06:47.957Z,40.50
2019-06-07T14:09:19.252Z,40.30
2019-06-07T14:11:51.109Z,40.70
2019-06-07T14:14:24.554Z,40.00
2019-06-07T14:16:55.083Z,40.60
2019-06-07T14:19:26.551Z,39.90
2019-06-07T14:21:57.615Z,39.00
2019-06-07T14:24:29.158Z,39.30
2019-06-07T14:27:09.022Z,40.00
2019-06-07T14:29:39.996Z,39.50
2019-06-07T14:32:11.049Z,40.60
2019-06-07T14:34:42.019Z,40.50
2019-06-07T14:37:12.964Z,40.40
2019-06-07T14:39:43.945Z,39.60
2019-06-07T14:42:14.883Z,39.90
2019-06-07T14:44:45.854Z,38.90
2019-06-07T14:47:16.824Z,38.30
2019-06-07T14:49:47.845Z,38.10
2019-06-07T14:52:18.820Z,38.40
2019-06-07T14:54:49.758Z,37.80
2019-06-07T14:57:20.800Z,38.00
2019-06-07T14:59:51.747Z,38.00
2019-06-07T15:02:22.809Z,38.10
2019-06-07T15:04:54.561Z,38.30
2019-06-07T15:07:26.694Z,38.90
2019-06-07T15:09:57.760Z,38.60
2019-06-07T15:12:29.345Z,38.30
2019-06-07T15:15:00.342Z,38.40
2019-06-07T15:17:33.107Z,38.50
2019-06-07T15:20:05.917Z,38.20
2019-06-07T15:22:38.474Z,38.10
2019-06-07T15:25:10.841Z,38.60
2019-06-07T15:27:42.107Z,39.50
2019-06-07T15:30:14.765Z,38.30
2019-06-07T15:32:45.738Z,37.20
2019-06-07T15:35:16.770Z,36.90
2019-06-07T15:37:48.011Z,36.50
2019-06-07T15:40:19.158Z,37.20
2019-06-07T15:42:53.226Z,38.00
2019-06-07T15:45:23.627Z,37.70
2019-06-07T15:47:54.689Z,38.10
2019-06-07T15:50:28.648Z,37.90
2019-06-07T15:52:58.352Z,38.00
2019-06-07T15:55:30.677Z,38.00
2019-06-07T15:58:01.958Z,37.70
2019-06-07T16:00:33.364Z,37.70
2019-06-07T16:03:05.456Z,36.70
2019-06-07T16:05:36.510Z,36.10
2019-06-07T16:08:07.431Z,36.10
2019-06-07T16:10:38.849Z,35.70
2019-06-07T16:13:09.819Z,35.70
2019-06-07T16:15:41.484Z,35.90
2019-06-07T16:18:12.548Z,35.70
2019-06-07T16:20:43.870Z,36.00
2019-06-07T16:23:14.972Z,35.40
2019-06-07T16:25:45.911Z,35.30
2019-06-07T16:28:16.888Z,35.40
2019-06-07T16:30:47.829Z,35.20
2019-06-07T16:33:18.902Z,34.40
2019-06-07T16:35:49.833Z,34.60
2019-06-07T16:38:20.798Z,33.90
2019-06-07T16:40:51.736Z,34.10
2019-06-07T16:43:22.725Z,34.40
2019-06-07T16:45:53.675Z,34.70
2019-06-07T16:48:25.649Z,34.80
2019-06-07T16:50:57.589Z,34.10
2019-06-07T16:53:28.558Z,34.20
2019-06-07T16:55:59.544Z,34.30
2019-06-07T16:58:30.517Z,34.40
2019-06-07T17:01:01.656Z,33.60
2019-06-07T17:03:32.622Z,33.80
2019-06-07T17:06:03.708Z,33.40
2019-06-07T17:08:34.757Z,33.70
2019-06-07T17:11:06.690Z,34.10
2019-06-07T17:13:38.154Z,33.50
2019-06-07T17:16:09.178Z,32.70
2019-06-07T17:18:40.957Z,32.30
2019-06-07T17:21:12.027Z,31.70
2019-06-07T17:23:43.802Z,30.80
2019-06-07T17:26:15.837Z,30.40
2019-06-07T17:28:49.983Z,29.90
2019-06-07T17:31:21.048Z,29.40
2019-06-07T17:33:52.079Z,29.00
2019-06-07T17:36:23.307Z,28.70
2019-06-07T17:38:54.393Z,28.60
2019-06-07T17:41:25.440Z,28.40
2019-06-07T17:44:00.144Z,28.20
2019-06-07T17:46:29.963Z,27.80
2019-06-07T17:49:00.941Z,27.50
2019-06-07T17:51:31.951Z,27.30
2019-06-07T17:54:02.918Z,27.20
2019-06-07T17:56:33.860Z,27.10
2019-06-07T17:59:04.939Z,27.00
2019-06-07T18:01:41.455Z,27.00
2019-06-07T18:04:08.564Z,27.10
2019-06-07T18:06:40.966Z,27.00
2019-06-07T18:09:14.073Z,27.00
2019-06-07T18:11:45.757Z,26.90
2019-06-07T18:14:16.852Z,26.80
2019-06-07T18:16:48.433Z,26.80
2019-06-07T18:19:19.445Z,26.80
2019-06-07T18:21:55.264Z,26.70
2019-06-07T18:24:23.058Z,26.50
2019-06-07T18:26:54.647Z,26.30
2019-06-07T18:29:25.702Z,26.20
2019-06-07T18:31:56.642Z,26.00
2019-06-07T18:34:27.819Z,25.90
2019-06-07T18:36:59.316Z,25.70
2019-06-07T18:39:30.291Z,25.60
2019-06-07T18:42:01.261Z,25.50
2019-06-07T18:44:32.218Z,25.40
2019-06-07T18:47:03.278Z,25.30
2019-06-07T18:49:36.158Z,25.30
2019-06-07T18:52:17.299Z,25.10
2019-06-07T18:54:48.868Z,25.00
2019-06-07T18:57:19.980Z,24.90
2019-06-07T18:59:52.254Z,24.80
2019-06-07T19:02:23.359Z,24.50
2019-06-07T19:04:54.303Z,24.20
2019-06-07T19:07:25.268Z,23.90
2019-06-07T19:09:56.910Z,23.80
2019-06-07T19:12:27.990Z,23.70
2019-06-07T19:14:59.705Z,23.60
2019-06-07T19:17:30.705Z,23.70
2019-06-07T19:20:01.666Z,23.60
2019-06-07T19:22:32.700Z,23.30
2019-06-07T19:25:04.083Z,23.10
2019-06-07T19:27:35.095Z,22.90
2019-06-07T19:30:09.410Z,22.70
2019-06-07T19:32:40.437Z,22.70
2019-06-07T19:35:11.715Z,22.60
2019-06-07T19:37:42.702Z,22.50
2019-06-07T19:40:13.940Z,22.30
2019-06-07T19:42:44.935Z,22.30
2019-06-07T19:45:29.784Z,22.40
2019-06-07T19:47:48.860Z,22.20
2019-06-07T19:50:20.206Z,22.10
2019-06-07T19:52:51.289Z,22.00
2019-06-07T19:55:22.438Z,21.90
2019-06-07T19:57:53.599Z,21.80
2019-06-07T20:00:24.847Z,21.70
2019-06-07T20:02:55.888Z,21.70
2019-06-07T20:05:26.865Z,21.80
2019-06-07T20:07:58.501Z,21.70
2019-06-07T20:10:29.591Z,21.60
2019-06-07T20:13:00.891Z,21.60
2019-06-07T20:15:31.974Z,21.50
2019-06-07T20:18:03.328Z,21.30
2019-06-07T20:20:34.377Z,21.20
2019-06-07T20:23:05.385Z,21.20
2019-06-07T20:25:36.375Z,21.20
2019-06-07T20:28:07.327Z,21.20
2019-06-07T20:30:38.310Z,21.20
2019-06-07T20:33:09.185Z,21.20
2019-06-07T20:35:40.153Z,21.10
2019-06-07T20:38:11.098Z,21.10
2019-06-07T20:40:42.089Z,21.00
2019-06-07T20:43:13.030Z,21.10
2019-06-07T20:45:44.060Z,21.10
2019-06-07T20:48:15.008Z,21.30
2019-06-07T20:50:46.011Z,21.40
2019-06-07T20:53:16.964Z,21.40
2019-06-07T20:55:47.970Z,21.40
2019-06-07T20:58:18.965Z,21.40
2019-06-07T21:00:50.002Z,21.40
2019-06-07T21:03:20.942Z,21.30
2019-06-07T21:05:51.933Z,21.30
2019-06-07T21:08:22.907Z,21.20
2019-06-07T21:10:53.888Z,21.20
2019-06-07T21:13:24.904Z,21.20
2019-06-07T21:15:55.873Z,21.10
2019-06-07T21:18:26.819Z,21.00
2019-06-07T21:20:57.793Z,20.80
2019-06-07T21:23:28.746Z,20.60
2019-06-07T21:26:00.736Z,20.30
2019-06-07T21:28:31.849Z,19.90
2019-06-07T21:31:03.778Z,19.10
2019-06-07T21:33:35.488Z,18.60
2019-06-07T21:36:07.664Z,18.00
2019-06-07T21:38:38.925Z,17.60
2019-06-07T21:41:10.610Z,17.30
2019-06-07T21:43:41.632Z,17.10
2019-06-07T21:46:19.975Z,16.90
2019-06-07T21:48:45.324Z,16.80
2019-06-07T21:51:16.232Z,16.70
2019-06-07T21:53:47.178Z,16.60
2019-06-07T21:56:19.165Z,16.60
2019-06-07T21:58:50.113Z,16.40
2019-06-07T22:01:22.589Z,16.30
2019-06-07T22:03:53.533Z,16.20
2019-06-07T22:06:24.516Z,16.00
2019-06-07T22:08:55.533Z,15.90
2019-06-07T22:11:26.661Z,15.70
2019-06-07T22:13:57.712Z,15.60
2019-06-07T22:16:29.587Z,15.50
2019-06-07T22:19:00.676Z,15.50
2019-06-07T22:21:31.671Z,15.40
2019-06-07T22:24:02.653Z,15.30
2019-06-07T22:26:33.596Z,15.30
2019-06-07T22:29:04.569Z,15.30
2019-06-07T22:31:35.584Z,15.20
2019-06-07T22:34:06.856Z,15.30
2019-06-07T22:36:37.993Z,15.30
2019-06-07T22:39:09.669Z,15.40
2019-06-07T22:41:41.704Z,15.40
2019-06-07T22:44:12.839Z,15.40
2019-06-07T22:46:43.824Z,15.40
2019-06-07T22:49:15.353Z,15.40
2019-06-07T22:51:46.445Z,15.40
2019-06-07T22:54:18.431Z,15.40
2019-06-07T22:56:50.979Z,15.40
2019-06-07T22:59:21.945Z,15.40
2019-06-07T23:01:52.909Z,15.40
2019-06-07T23:04:23.880Z,15.40
2019-06-07T23:06:54.823Z,15.30
2019-06-07T23:09:27.373Z,15.30
2019-06-07T23:11:58.321Z,15.20
2019-06-07T23:14:29.298Z,15.10
2019-06-07T23:17:00.249Z,15.00
2019-06-07T23:19:31.224Z,15.10
2019-06-07T23:22:02.169Z,15.10
2019-06-07T23:24:33.141Z,14.90
2019-06-07T23:27:04.090Z,14.90
2019-06-07T23:29:35.054Z,14.80
2019-06-07T23:32:06.000Z,14.70
2019-06-07T23:34:37.014Z,14.70
2019-06-07T23:37:08.008Z,14.60
2019-06-07T23:39:39.982Z,14.50
2019-06-07T23:42:11.070Z,14.50
2019-06-07T23:44:42.081Z,14.50
2019-06-07T23:47:15.533Z,14.40
2019-06-07T23:49:45.691Z,14.30
2019-06-07T23:52:18.125Z,14.30
2019-06-07T23:54:49.279Z,14.30
2019-06-07T23:57:21.303Z,14.30
2019-06-07T23:59:53.560Z,14.20
